sensor_id;sensor_type;location;lat;lon;timestamp;pressure;altitude;pressure_sealevel;temperature;humidity
79671;BME280;69137;50.878;8.050;2024-03-02T00:02:06;96862.94;;;4.84;86.52
79671;BME280;69137;50.878;8.050;2024-03-02T00:04:32;96853.44;;;4.76;87.03
79671;BME280;69137;50.878;8.050;2024-03-02T00:06:57;96860.75;;;4.81;86.82
79671;BME280;69137;50.878;8.050;2024-03-02T00:09:23;96854.56;;;4.86;86.51
79671;BME280;69137;50.878;8.050;2024-03-02T00:11:48;96853.97;;;4.78;87.02
79671;BME280;69137;50.878;8.050;2024-03-02T00:14:14;96862.09;;;4.73;87.35
79671;BME280;69137;50.878;8.050;2024-03-02T00:16:39;96851.25;;;4.73;87.23
79671;BME280;69137;50.878;8.050;2024-03-02T00:19:05;96841.78;;;4.71;87.46
79671;BME280;69137;50.878;8.050;2024-03-02T00:21:32;96853.94;;;4.68;87.94
79671;BME280;69137;50.878;8.050;2024-03-02T00:23:58;96855.06;;;4.72;87.80
79671;BME280;69137;50.878;8.050;2024-03-02T00:26:23;96864.78;;;4.68;87.94
79671;BME280;69137;50.878;8.050;2024-03-02T00:28:49;96856.91;;;4.67;88.05
79671;BME280;69137;50.878;8.050;2024-03-02T00:31:15;96856.09;;;4.61;88.58
79671;BME280;69137;50.878;8.050;2024-03-02T00:33:46;96862.00;;;4.53;89.01
79671;BME280;69137;50.878;8.050;2024-03-02T00:36:21;96858.22;;;4.54;89.07
79671;BME280;69137;50.878;8.050;2024-03-02T00:38:51;96860.66;;;4.50;89.40
79671;BME280;69137;50.878;8.050;2024-03-02T00:41:26;96856.34;;;4.54;89.43
79671;BME280;69137;50.878;8.050;2024-03-02T00:44:03;96860.41;;;4.52;89.47
79671;BME280;69137;50.878;8.050;2024-03-02T00:46:31;96864.44;;;4.49;89.88
79671;BME280;69137;50.878;8.050;2024-03-02T00:49:00;96849.84;;;4.55;89.71
79671;BME280;69137;50.878;8.050;2024-03-02T00:51:27;96860.94;;;4.49;90.34
79671;BME280;69137;50.878;8.050;2024-03-02T00:53:54;96871.75;;;4.54;90.40
79671;BME280;69137;50.878;8.050;2024-03-02T00:56:22;96862.81;;;4.53;90.68
79671;BME280;69137;50.878;8.050;2024-03-02T00:58:48;96868.50;;;4.52;90.69
79671;BME280;69137;50.878;8.050;2024-03-02T01:01:13;96864.41;;;4.44;91.16
79671;BME280;69137;50.878;8.050;2024-03-02T01:03:39;96855.25;;;4.55;91.07
79671;BME280;69137;50.878;8.050;2024-03-02T01:06:04;96855.00;;;4.57;91.23
79671;BME280;69137;50.878;8.050;2024-03-02T01:08:29;96853.91;;;4.58;91.23
79671;BME280;69137;50.878;8.050;2024-03-02T01:10:55;96852.31;;;4.57;91.25
79671;BME280;69137;50.878;8.050;2024-03-02T01:13:22;96862.56;;;4.55;91.45
79671;BME280;69137;50.878;8.050;2024-03-02T01:15:47;96857.72;;;4.62;91.44
79671;BME280;69137;50.878;8.050;2024-03-02T01:18:13;96860.16;;;4.69;91.29
79671;BME280;69137;50.878;8.050;2024-03-02T01:20:38;96866.94;;;4.71;90.75
79671;BME280;69137;50.878;8.050;2024-03-02T01:23:03;96855.84;;;4.63;91.63
79671;BME280;69137;50.878;8.050;2024-03-02T01:25:29;96851.81;;;4.70;91.19
79671;BME280;69137;50.878;8.050;2024-03-02T01:27:54;96854.75;;;4.69;91.54
79671;BME280;69137;50.878;8.050;2024-03-02T01:30:19;96847.50;;;4.85;90.66
79671;BME280;69137;50.878;8.050;2024-03-02T01:32:45;96836.16;;;4.98;89.91
79671;BME280;69137;50.878;8.050;2024-03-02T01:35:10;96836.97;;;4.93;90.54
79671;BME280;69137;50.878;8.050;2024-03-02T01:37:35;96833.97;;;4.85;90.83
79671;BME280;69137;50.878;8.050;2024-03-02T01:40:00;96830.97;;;4.76;91.17
79671;BME280;69137;50.878;8.050;2024-03-02T01:42:26;96825.59;;;4.81;90.64
79671;BME280;69137;50.878;8.050;2024-03-02T01:44:51;96828.31;;;4.86;90.87
79671;BME280;69137;50.878;8.050;2024-03-02T01:47:16;96823.72;;;4.97;90.49
79671;BME280;69137;50.878;8.050;2024-03-02T01:49:42;96821.25;;;4.95;90.85
79671;BME280;69137;50.878;8.050;2024-03-02T01:52:07;96818.56;;;5.00;90.40
79671;BME280;69137;50.878;8.050;2024-03-02T01:54:32;96812.63;;;4.93;90.62
79671;BME280;69137;50.878;8.050;2024-03-02T01:56:58;96816.69;;;4.96;90.53
79671;BME280;69137;50.878;8.050;2024-03-02T01:59:24;96814.50;;;4.98;90.47
79671;BME280;69137;50.878;8.050;2024-03-02T02:01:49;96814.00;;;5.01;90.12
79671;BME280;69137;50.878;8.050;2024-03-02T02:04:15;96804.25;;;5.10;89.77
79671;BME280;69137;50.878;8.050;2024-03-02T02:06:40;96799.34;;;4.92;90.24
79671;BME280;69137;50.878;8.050;2024-03-02T02:09:06;96796.09;;;4.95;90.28
79671;BME280;69137;50.878;8.050;2024-03-02T02:11:33;96799.34;;;4.87;90.54
79671;BME280;69137;50.878;8.050;2024-03-02T02:13:58;96796.09;;;4.90;90.38
79671;BME280;69137;50.878;8.050;2024-03-02T02:16:24;96789.59;;;4.86;90.91
79671;BME280;69137;50.878;8.050;2024-03-02T02:18:49;96779.03;;;4.84;91.03
79671;BME280;69137;50.878;8.050;2024-03-02T02:21:14;96781.72;;;4.74;91.34
79671;BME280;69137;50.878;8.050;2024-03-02T02:23:39;96783.09;;;4.81;91.08
79671;BME280;69137;50.878;8.050;2024-03-02T02:26:05;96783.63;;;4.78;91.20
79671;BME280;69137;50.878;8.050;2024-03-02T02:28:30;96772.00;;;4.78;91.06
79671;BME280;69137;50.878;8.050;2024-03-02T02:30:56;96779.59;;;4.81;90.96
79671;BME280;69137;50.878;8.050;2024-03-02T02:33:21;96781.47;;;4.75;91.46
79671;BME280;69137;50.878;8.050;2024-03-02T02:35:47;96783.63;;;4.78;91.29
79671;BME280;69137;50.878;8.050;2024-03-02T02:38:12;96777.13;;;4.74;91.82
79671;BME280;69137;50.878;8.050;2024-03-02T02:40:38;96776.88;;;4.81;91.56
79671;BME280;69137;50.878;8.050;2024-03-02T02:43:03;96772.81;;;4.78;91.41
79671;BME280;69137;50.878;8.050;2024-03-02T02:45:28;96768.47;;;4.72;91.75
79671;BME280;69137;50.878;8.050;2024-03-02T02:47:54;96768.19;;;4.74;91.41
79671;BME280;69137;50.878;8.050;2024-03-02T02:50:19;96764.41;;;4.70;91.39
79671;BME280;69137;50.878;8.050;2024-03-02T02:52:45;96757.38;;;4.69;91.51
79671;BME280;69137;50.878;8.050;2024-03-02T02:55:11;96763.56;;;4.64;91.44
79671;BME280;69137;50.878;8.050;2024-03-02T02:57:39;96755.75;;;4.63;91.55
79671;BME280;69137;50.878;8.050;2024-03-02T03:00:06;96753.81;;;4.53;92.16
79671;BME280;69137;50.878;8.050;2024-03-02T03:02:38;96746.78;;;4.47;91.94
79671;BME280;69137;50.878;8.050;2024-03-02T03:05:05;96747.34;;;4.49;91.88
79671;BME280;69137;50.878;8.050;2024-03-02T03:07:31;96748.38;;;4.37;92.63
79671;BME280;69137;50.878;8.050;2024-03-02T03:09:56;96753.53;;;4.39;92.54
79671;BME280;69137;50.878;8.050;2024-03-02T03:12:22;96752.19;;;4.42;92.21
79671;BME280;69137;50.878;8.050;2024-03-02T03:14:47;96750.53;;;4.41;92.27
79671;BME280;69137;50.878;8.050;2024-03-02T03:17:12;96750.25;;;4.32;92.42
79671;BME280;69137;50.878;8.050;2024-03-02T03:19:38;96755.13;;;4.40;92.08
79671;BME280;69137;50.878;8.050;2024-03-02T03:22:03;96756.47;;;4.37;91.97
79671;BME280;69137;50.878;8.050;2024-03-02T03:24:29;96768.66;;;4.40;92.13
79671;BME280;69137;50.878;8.050;2024-03-02T03:26:54;96760.00;;;4.43;91.91
79671;BME280;69137;50.878;8.050;2024-03-02T03:29:20;96759.50;;;4.46;91.45
79671;BME280;69137;50.878;8.050;2024-03-02T03:31:45;96754.31;;;4.34;91.89
79671;BME280;69137;50.878;8.050;2024-03-02T03:34:10;96755.63;;;4.27;92.05
79671;BME280;69137;50.878;8.050;2024-03-02T03:36:37;96752.44;;;4.40;91.49
79671;BME280;69137;50.878;8.050;2024-03-02T03:39:02;96751.88;;;4.33;91.75
79671;BME280;69137;50.878;8.050;2024-03-02T03:41:28;96746.22;;;4.40;91.57
79671;BME280;69137;50.878;8.050;2024-03-02T03:43:53;96742.72;;;4.39;91.12
79671;BME280;69137;50.878;8.050;2024-03-02T03:46:19;96739.41;;;4.27;91.96
79671;BME280;69137;50.878;8.050;2024-03-02T03:48:45;96739.41;;;4.27;91.92
79671;BME280;69137;50.878;8.050;2024-03-02T03:51:10;96748.59;;;4.21;91.89
79671;BME280;69137;50.878;8.050;2024-03-02T03:53:35;96743.19;;;4.21;92.19
79671;BME280;69137;50.878;8.050;2024-03-02T03:56:00;96741.84;;;4.23;92.04
79671;BME280;69137;50.878;8.050;2024-03-02T03:58:26;96754.78;;;4.11;92.53
79671;BME280;69137;50.878;8.050;2024-03-02T04:00:51;96755.31;;;4.08;92.69
79671;BME280;69137;50.878;8.050;2024-03-02T04:03:16;96760.16;;;4.06;92.77
79671;BME280;69137;50.878;8.050;2024-03-02T04:05:41;96759.63;;;4.09;92.76
79671;BME280;69137;50.878;8.050;2024-03-02T04:08:07;96756.34;;;4.02;92.61
79671;BME280;69137;50.878;8.050;2024-03-02T04:10:32;96754.94;;;3.89;93.56
79671;BME280;69137;50.878;8.050;2024-03-02T04:12:59;96763.63;;;3.96;93.14
79671;BME280;69137;50.878;8.050;2024-03-02T04:15:24;96771.72;;;3.96;93.03
79671;BME280;69137;50.878;8.050;2024-03-02T04:17:50;96782.47;;;3.86;92.93
79671;BME280;69137;50.878;8.050;2024-03-02T04:20:15;96786.25;;;3.80;93.79
79671;BME280;69137;50.878;8.050;2024-03-02T04:22:40;96790.13;;;3.99;93.20
79671;BME280;69137;50.878;8.050;2024-03-02T04:25:06;96789.25;;;3.88;93.08
79671;BME280;69137;50.878;8.050;2024-03-02T04:27:32;96791.16;;;3.88;93.27
79671;BME280;69137;50.878;8.050;2024-03-02T04:29:58;96778.13;;;3.80;93.53
79671;BME280;69137;50.878;8.050;2024-03-02T04:32:25;96787.09;;;3.90;93.64
79671;BME280;69137;50.878;8.050;2024-03-02T04:34:50;96781.69;;;3.85;93.44
79671;BME280;69137;50.878;8.050;2024-03-02T04:37:16;96788.63;;;3.76;94.08
79671;BME280;69137;50.878;8.050;2024-03-02T04:39:41;96797.75;;;3.65;94.35
79671;BME280;69137;50.878;8.050;2024-03-02T04:42:06;96794.31;;;3.75;93.97
79671;BME280;69137;50.878;8.050;2024-03-02T04:44:32;96795.09;;;3.70;93.98
79671;BME280;69137;50.878;8.050;2024-03-02T04:46:57;96802.09;;;3.66;94.52
79671;BME280;69137;50.878;8.050;2024-03-02T04:49:23;96792.06;;;3.61;94.19
79671;BME280;69137;50.878;8.050;2024-03-02T04:51:48;96789.50;;;3.82;93.86
79671;BME280;69137;50.878;8.050;2024-03-02T04:54:13;96795.72;;;3.82;93.91
79671;BME280;69137;50.878;8.050;2024-03-02T04:56:39;96788.66;;;3.81;93.93
79671;BME280;69137;50.878;8.050;2024-03-02T04:59:17;96794.03;;;3.76;93.94
79671;BME280;69137;50.878;8.050;2024-03-02T05:01:43;96797.59;;;3.82;93.79
79671;BME280;69137;50.878;8.050;2024-03-02T05:04:09;96793.00;;;3.82;93.64
79671;BME280;69137;50.878;8.050;2024-03-02T05:06:38;96792.69;;;3.79;93.57
79671;BME280;69137;50.878;8.050;2024-03-02T05:09:09;96799.47;;;3.81;93.58
79671;BME280;69137;50.878;8.050;2024-03-02T05:11:35;96801.63;;;3.74;93.79
79671;BME280;69137;50.878;8.050;2024-03-02T05:14:07;96801.06;;;3.72;94.17
79671;BME280;69137;50.878;8.050;2024-03-02T05:16:35;96794.63;;;3.83;93.46
79671;BME280;69137;50.878;8.050;2024-03-02T05:19:03;96792.94;;;3.72;93.65
79671;BME280;69137;50.878;8.050;2024-03-02T05:21:28;96805.94;;;3.75;93.57
79671;BME280;69137;50.878;8.050;2024-03-02T05:23:54;96798.41;;;3.82;93.16
79671;BME280;69137;50.878;8.050;2024-03-02T05:26:19;96797.13;;;3.95;92.67
79671;BME280;69137;50.878;8.050;2024-03-02T05:28:44;96804.88;;;3.81;93.03
79671;BME280;69137;50.878;8.050;2024-03-02T05:31:10;96806.56;;;3.87;92.74
79671;BME280;69137;50.878;8.050;2024-03-02T05:33:38;96814.69;;;3.92;92.60
79671;BME280;69137;50.878;8.050;2024-03-02T05:36:03;96817.56;;;3.81;92.77
79671;BME280;69137;50.878;8.050;2024-03-02T05:38:29;96818.63;;;3.75;93.23
79671;BME280;69137;50.878;8.050;2024-03-02T05:40:54;96825.13;;;3.79;92.79
79671;BME280;69137;50.878;8.050;2024-03-02T05:43:20;96825.56;;;3.65;93.23
79671;BME280;69137;50.878;8.050;2024-03-02T05:45:45;96826.16;;;3.72;92.85
79671;BME280;69137;50.878;8.050;2024-03-02T05:48:10;96818.91;;;3.78;92.61
79671;BME280;69137;50.878;8.050;2024-03-02T05:50:36;96832.22;;;3.90;92.01
79671;BME280;69137;50.878;8.050;2024-03-02T05:53:01;96817.84;;;3.79;92.52
79671;BME280;69137;50.878;8.050;2024-03-02T05:55:26;96827.53;;;3.75;93.07
79671;BME280;69137;50.878;8.050;2024-03-02T05:57:52;96832.72;;;3.82;93.09
79671;BME280;69137;50.878;8.050;2024-03-02T06:00:23;96829.50;;;3.85;92.82
79671;BME280;69137;50.878;8.050;2024-03-02T06:02:48;96837.59;;;3.85;92.48
79671;BME280;69137;50.878;8.050;2024-03-02T06:05:14;96843.78;;;3.80;92.65
79671;BME280;69137;50.878;8.050;2024-03-02T06:07:40;96833.81;;;3.86;92.50
79671;BME280;69137;50.878;8.050;2024-03-02T06:10:06;96834.63;;;3.86;92.51
79671;BME280;69137;50.878;8.050;2024-03-02T06:12:32;96846.81;;;3.89;92.56
79671;BME280;69137;50.878;8.050;2024-03-02T06:14:58;96840.56;;;3.83;93.12
79671;BME280;69137;50.878;8.050;2024-03-02T06:17:23;96837.31;;;3.86;92.94
79671;BME280;69137;50.878;8.050;2024-03-02T06:19:48;96839.22;;;3.86;92.41
79671;BME280;69137;50.878;8.050;2024-03-02T06:22:13;96847.63;;;3.89;91.70
79671;BME280;69137;50.878;8.050;2024-03-02T06:24:39;96844.91;;;3.84;91.60
79671;BME280;69137;50.878;8.050;2024-03-02T06:27:04;96849.19;;;3.80;92.03
79671;BME280;69137;50.878;8.050;2024-03-02T06:29:32;96857.03;;;3.82;91.64
79671;BME280;69137;50.878;8.050;2024-03-02T06:31:58;96867.28;;;3.80;91.20
79671;BME280;69137;50.878;8.050;2024-03-02T06:34:23;96866.47;;;3.79;91.15
79671;BME280;69137;50.878;8.050;2024-03-02T06:36:48;96862.34;;;3.66;91.68
79671;BME280;69137;50.878;8.050;2024-03-02T06:39:13;96869.31;;;3.62;91.90
79671;BME280;69137;50.878;8.050;2024-03-02T06:41:39;96865.72;;;3.52;92.37
79671;BME280;69137;50.878;8.050;2024-03-02T06:44:04;96868.94;;;3.48;92.76
79671;BME280;69137;50.878;8.050;2024-03-02T06:46:30;96870.88;;;3.53;92.68
79671;BME280;69137;50.878;8.050;2024-03-02T06:48:56;96869.03;;;3.59;92.46
79671;BME280;69137;50.878;8.050;2024-03-02T06:51:21;96880.41;;;3.61;92.80
79671;BME280;69137;50.878;8.050;2024-03-02T06:53:46;96882.25;;;3.60;93.18
79671;BME280;69137;50.878;8.050;2024-03-02T06:56:11;96875.81;;;3.61;93.05
79671;BME280;69137;50.878;8.050;2024-03-02T06:58:37;96885.31;;;3.69;93.21
79671;BME280;69137;50.878;8.050;2024-03-02T07:01:02;96881.31;;;3.77;93.22
79671;BME280;69137;50.878;8.050;2024-03-02T07:03:27;96877.31;;;3.84;93.03
79671;BME280;69137;50.878;8.050;2024-03-02T07:05:53;96880.63;;;3.97;92.49
79671;BME280;69137;50.878;8.050;2024-03-02T07:08:18;96879.00;;;3.96;92.88
79671;BME280;69137;50.878;8.050;2024-03-02T07:10:43;96879.63;;;4.08;92.08
79671;BME280;69137;50.878;8.050;2024-03-02T07:13:08;96890.44;;;4.08;92.08
79671;BME280;69137;50.878;8.050;2024-03-02T07:15:34;96884.03;;;4.19;91.97
79671;BME280;69137;50.878;8.050;2024-03-02T07:18:15;96885.13;;;4.23;91.62
79671;BME280;69137;50.878;8.050;2024-03-02T07:20:40;96884.06;;;4.29;91.45
79671;BME280;69137;50.878;8.050;2024-03-02T07:23:05;96898.19;;;4.36;91.15
79671;BME280;69137;50.878;8.050;2024-03-02T07:25:31;96894.66;;;4.36;91.07
79671;BME280;69137;50.878;8.050;2024-03-02T07:27:56;96887.13;;;4.48;90.13
79671;BME280;69137;50.878;8.050;2024-03-02T07:30:22;96883.69;;;4.63;89.21
79671;BME280;69137;50.878;8.050;2024-03-02T07:32:50;96879.91;;;4.64;90.21
79671;BME280;69137;50.878;8.050;2024-03-02T07:35:15;96881.53;;;4.65;90.13
79671;BME280;69137;50.878;8.050;2024-03-02T07:37:41;96883.72;;;4.68;90.67
79671;BME280;69137;50.878;8.050;2024-03-02T07:40:07;96887.53;;;4.77;90.60
79671;BME280;69137;50.878;8.050;2024-03-02T07:42:40;96889.44;;;4.82;90.52
79671;BME280;69137;50.878;8.050;2024-03-02T07:45:06;96892.97;;;4.82;90.65
79671;BME280;69137;50.878;8.050;2024-03-02T07:47:33;96897.34;;;4.99;89.66
79671;BME280;69137;50.878;8.050;2024-03-02T07:49:58;96903.81;;;4.98;89.72
79671;BME280;69137;50.878;8.050;2024-03-02T07:52:24;96900.59;;;5.01;88.88
79671;BME280;69137;50.878;8.050;2024-03-02T07:54:49;96902.84;;;5.30;87.66
79671;BME280;69137;50.878;8.050;2024-03-02T07:57:14;96910.44;;;5.53;86.41
79671;BME280;69137;50.878;8.050;2024-03-02T07:59:40;96907.22;;;5.72;85.99
79671;BME280;69137;50.878;8.050;2024-03-02T08:02:05;96902.03;;;5.90;84.64
79671;BME280;69137;50.878;8.050;2024-03-02T08:04:31;96902.63;;;6.03;83.05
79671;BME280;69137;50.878;8.050;2024-03-02T08:06:57;96901.53;;;5.94;83.14
79671;BME280;69137;50.878;8.050;2024-03-02T08:09:22;96906.66;;;5.90;83.41
79671;BME280;69137;50.878;8.050;2024-03-02T08:11:47;96908.56;;;5.84;83.03
79671;BME280;69137;50.878;8.050;2024-03-02T08:14:13;96903.94;;;5.75;83.31
79671;BME280;69137;50.878;8.050;2024-03-02T08:16:38;96901.78;;;5.66;83.68
79671;BME280;69137;50.878;8.050;2024-03-02T08:19:03;96894.22;;;5.68;83.45
79671;BME280;69137;50.878;8.050;2024-03-02T08:21:29;96895.56;;;5.76;83.07
79671;BME280;69137;50.878;8.050;2024-03-02T08:23:56;96903.94;;;5.69;83.14
79671;BME280;69137;50.878;8.050;2024-03-02T08:26:22;96900.97;;;5.86;83.06
79671;BME280;69137;50.878;8.050;2024-03-02T08:28:47;96902.59;;;6.08;82.22
79671;BME280;69137;50.878;8.050;2024-03-02T08:31:13;96904.47;;;6.33;82.79
79671;BME280;69137;50.878;8.050;2024-03-02T08:33:38;96903.31;;;6.54;81.23
79671;BME280;69137;50.878;8.050;2024-03-02T08:36:03;96906.53;;;6.72;79.86
79671;BME280;69137;50.878;8.050;2024-03-02T08:38:29;96904.81;;;6.86;79.39
79671;BME280;69137;50.878;8.050;2024-03-02T08:40:54;96917.00;;;6.99;78.50
79671;BME280;69137;50.878;8.050;2024-03-02T08:43:20;96911.75;;;7.13;78.40
79671;BME280;69137;50.878;8.050;2024-03-02T08:45:45;96901.94;;;7.22;79.78
79671;BME280;69137;50.878;8.050;2024-03-02T08:48:12;96913.22;;;7.44;78.14
79671;BME280;69137;50.878;8.050;2024-03-02T08:50:37;96918.78;;;7.63;78.58
79671;BME280;69137;50.878;8.050;2024-03-02T08:53:03;96921.38;;;8.13;78.02
79671;BME280;69137;50.878;8.050;2024-03-02T08:55:29;96932.13;;;8.28;76.73
79671;BME280;69137;50.878;8.050;2024-03-02T08:57:55;96923.31;;;8.42;74.18
79671;BME280;69137;50.878;8.050;2024-03-02T09:00:20;96921.72;;;8.36;74.30
79671;BME280;69137;50.878;8.050;2024-03-02T09:02:46;96931.50;;;8.37;74.16
79671;BME280;69137;50.878;8.050;2024-03-02T09:05:11;96923.50;;;8.74;72.78
79671;BME280;69137;50.878;8.050;2024-03-02T09:07:37;96916.97;;;8.75;71.45
79671;BME280;69137;50.878;8.050;2024-03-02T09:10:04;96919.16;;;8.98;69.81
79671;BME280;69137;50.878;8.050;2024-03-02T09:12:30;96922.06;;;8.82;71.91
79671;BME280;69137;50.878;8.050;2024-03-02T09:14:55;96921.88;;;8.73;71.98
79671;BME280;69137;50.878;8.050;2024-03-02T09:17:20;96924.06;;;8.47;72.86
79671;BME280;69137;50.878;8.050;2024-03-02T09:19:46;96928.97;;;8.45;72.69
79671;BME280;69137;50.878;8.050;2024-03-02T09:22:11;96923.03;;;8.43;73.23
79671;BME280;69137;50.878;8.050;2024-03-02T09:24:36;96930.41;;;8.67;74.20
79671;BME280;69137;50.878;8.050;2024-03-02T09:27:02;96925.28;;;9.08;72.72
79671;BME280;69137;50.878;8.050;2024-03-02T09:29:27;96916.25;;;9.32;73.05
79671;BME280;69137;50.878;8.050;2024-03-02T09:31:53;96936.06;;;9.37;70.49
79671;BME280;69137;50.878;8.050;2024-03-02T09:34:18;96919.63;;;9.61;69.72
79671;BME280;69137;50.878;8.050;2024-03-02T09:36:44;96921.75;;;9.65;69.42
79671;BME280;69137;50.878;8.050;2024-03-02T09:39:09;96925.06;;;9.99;66.93
79671;BME280;69137;50.878;8.050;2024-03-02T09:41:36;96922.34;;;10.32;66.35
79671;BME280;69137;50.878;8.050;2024-03-02T09:44:02;96916.91;;;10.46;64.01
79671;BME280;69137;50.878;8.050;2024-03-02T09:46:28;96923.56;;;10.40;63.81
79671;BME280;69137;50.878;8.050;2024-03-02T09:48:53;96915.00;;;10.46;63.50
79671;BME280;69137;50.878;8.050;2024-03-02T09:51:19;96913.78;;;10.53;63.69
79671;BME280;69137;50.878;8.050;2024-03-02T09:53:45;96916.22;;;10.68;63.13
79671;BME280;69137;50.878;8.050;2024-03-02T09:56:12;96912.41;;;10.69;62.66
79671;BME280;69137;50.878;8.050;2024-03-02T09:58:38;96915.75;;;10.80;62.50
79671;BME280;69137;50.878;8.050;2024-03-02T10:01:06;96916.44;;;10.71;62.19
79671;BME280;69137;50.878;8.050;2024-03-02T10:03:33;96916.31;;;10.63;62.31
79671;BME280;69137;50.878;8.050;2024-03-02T10:08:46;96919.75;;;10.55;62.67
79671;BME280;69137;50.878;8.050;2024-03-02T10:11:25;96915.41;;;10.67;61.33
79671;BME280;69137;50.878;8.050;2024-03-02T10:14:07;96906.09;;;10.68;61.99
79671;BME280;69137;50.878;8.050;2024-03-02T10:16:34;96910.06;;;10.48;62.99
79671;BME280;69137;50.878;8.050;2024-03-02T10:21:44;96897.50;;;10.89;61.39
79671;BME280;69137;50.878;8.050;2024-03-02T10:24:09;96901.94;;;11.26;61.47
79671;BME280;69137;50.878;8.050;2024-03-02T10:26:35;96902.19;;;11.52;59.65
79671;BME280;69137;50.878;8.050;2024-03-02T10:29:00;96900.06;;;11.49;60.93
79671;BME280;69137;50.878;8.050;2024-03-02T10:31:26;96900.78;;;11.41;59.02
79671;BME280;69137;50.878;8.050;2024-03-02T10:33:54;96897.56;;;11.25;58.60
79671;BME280;69137;50.878;8.050;2024-03-02T10:36:20;96886.28;;;11.41;59.12
79671;BME280;69137;50.878;8.050;2024-03-02T10:38:46;96886.97;;;11.10;61.83
79671;BME280;69137;50.878;8.050;2024-03-02T10:41:16;96886.78;;;11.06;63.84
79671;BME280;69137;50.878;8.050;2024-03-02T10:43:42;96891.00;;;11.26;62.66
79671;BME280;69137;50.878;8.050;2024-03-02T10:46:08;96890.69;;;11.64;62.61
79671;BME280;69137;50.878;8.050;2024-03-02T10:48:35;96885.66;;;11.80;60.14
79671;BME280;69137;50.878;8.050;2024-03-02T10:51:01;96884.00;;;11.93;60.24
79671;BME280;69137;50.878;8.050;2024-03-02T10:53:27;96882.75;;;11.76;60.24
79671;BME280;69137;50.878;8.050;2024-03-02T10:55:57;96878.63;;;11.65;59.33
79671;BME280;69137;50.878;8.050;2024-03-02T10:58:31;96886.31;;;11.99;58.89
79671;BME280;69137;50.878;8.050;2024-03-02T11:01:02;96881.28;;;11.93;59.09
79671;BME280;69137;50.878;8.050;2024-03-02T11:03:29;96890.06;;;11.67;60.73
79671;BME280;69137;50.878;8.050;2024-03-02T11:06:01;96888.59;;;12.29;59.80
79671;BME280;69137;50.878;8.050;2024-03-02T11:08:31;96890.94;;;12.44;56.76
79671;BME280;69137;50.878;8.050;2024-03-02T11:11:07;96881.50;;;12.28;56.64
79671;BME280;69137;50.878;8.050;2024-03-02T11:13:37;96875.13;;;12.10;56.80
79671;BME280;69137;50.878;8.050;2024-03-02T11:16:05;96885.16;;;12.45;56.63
79671;BME280;69137;50.878;8.050;2024-03-02T11:18:33;96883.16;;;12.37;55.21
79671;BME280;69137;50.878;8.050;2024-03-02T11:20:59;96883.38;;;12.18;56.01
79671;BME280;69137;50.878;8.050;2024-03-02T11:23:34;96881.25;;;12.15;57.15
79671;BME280;69137;50.878;8.050;2024-03-02T11:26:21;96876.03;;;12.05;56.66
79671;BME280;69137;50.878;8.050;2024-03-02T11:28:48;96873.09;;;11.79;58.44
79671;BME280;69137;50.878;8.050;2024-03-02T11:31:14;96885.06;;;11.83;57.51
79671;BME280;69137;50.878;8.050;2024-03-02T11:33:39;96872.88;;;11.89;58.14
79671;BME280;69137;50.878;8.050;2024-03-02T11:36:06;96871.22;;;12.02;58.14
79671;BME280;69137;50.878;8.050;2024-03-02T11:38:33;96864.88;;;12.24;57.32
79671;BME280;69137;50.878;8.050;2024-03-02T11:41:00;96858.44;;;12.20;57.47
79671;BME280;69137;50.878;8.050;2024-03-02T11:43:28;96861.94;;;12.12;58.51
79671;BME280;69137;50.878;8.050;2024-03-02T11:45:58;96868.59;;;12.19;57.85
79671;BME280;69137;50.878;8.050;2024-03-02T11:48:25;96861.81;;;12.17;58.33
79671;BME280;69137;50.878;8.050;2024-03-02T11:50:50;96863.91;;;12.51;57.55
79671;BME280;69137;50.878;8.050;2024-03-02T11:53:16;96856.78;;;12.50;56.45
79671;BME280;69137;50.878;8.050;2024-03-02T11:55:44;96854.06;;;12.99;56.69
79671;BME280;69137;50.878;8.050;2024-03-02T11:58:12;96862.56;;;12.88;55.00
79671;BME280;69137;50.878;8.050;2024-03-02T12:00:37;96860.53;;;13.11;56.85
79671;BME280;69137;50.878;8.050;2024-03-02T12:03:08;96852.41;;;12.89;54.36
79671;BME280;69137;50.878;8.050;2024-03-02T12:05:34;96837.69;;;12.67;54.87
79671;BME280;69137;50.878;8.050;2024-03-02T12:08:02;96846.25;;;12.75;54.96
79671;BME280;69137;50.878;8.050;2024-03-02T12:10:29;96860.34;;;12.99;53.90
79671;BME280;69137;50.878;8.050;2024-03-02T12:13:01;96853.59;;;13.14;54.63
79671;BME280;69137;50.878;8.050;2024-03-02T12:15:29;96847.69;;;13.29;53.04
79671;BME280;69137;50.878;8.050;2024-03-02T12:17:56;96852.50;;;13.24;52.97
79671;BME280;69137;50.878;8.050;2024-03-02T12:20:26;96859.16;;;13.40;53.68
79671;BME280;69137;50.878;8.050;2024-03-02T12:22:52;96847.38;;;13.31;53.06
79671;BME280;69137;50.878;8.050;2024-03-02T12:25:19;96852.22;;;13.51;54.58
79671;BME280;69137;50.878;8.050;2024-03-02T12:27:45;96847.84;;;13.59;52.67
79671;BME280;69137;50.878;8.050;2024-03-02T12:30:11;96850.13;;;13.66;52.47
79671;BME280;69137;50.878;8.050;2024-03-02T12:32:39;96838.34;;;13.65;51.30
79671;BME280;69137;50.878;8.050;2024-03-02T12:35:04;96844.59;;;14.01;51.75
79671;BME280;69137;50.878;8.050;2024-03-02T12:37:30;96832.81;;;14.00;49.86
79671;BME280;69137;50.878;8.050;2024-03-02T12:39:56;96844.31;;;13.76;51.21
79671;BME280;69137;50.878;8.050;2024-03-02T12:42:21;96841.25;;;13.43;52.15
79671;BME280;69137;50.878;8.050;2024-03-02T12:44:46;96839.63;;;13.33;51.99
79671;BME280;69137;50.878;8.050;2024-03-02T12:47:12;96842.38;;;13.33;52.18
79671;BME280;69137;50.878;8.050;2024-03-02T12:49:40;96835.59;;;13.39;51.80
79671;BME280;69137;50.878;8.050;2024-03-02T12:52:05;96822.69;;;13.57;52.18
79671;BME280;69137;50.878;8.050;2024-03-02T12:54:31;96827.50;;;14.04;51.20
79671;BME280;69137;50.878;8.050;2024-03-02T12:56:57;96823.78;;;13.99;50.68
79671;BME280;69137;50.878;8.050;2024-03-02T12:59:24;96820.72;;;13.84;50.55
79671;BME280;69137;50.878;8.050;2024-03-02T13:01:55;96823.97;;;13.68;51.17
79671;BME280;69137;50.878;8.050;2024-03-02T13:04:27;96812.69;;;13.61;51.30
79671;BME280;69137;50.878;8.050;2024-03-02T13:06:56;96815.44;;;13.70;52.36
79671;BME280;69137;50.878;8.050;2024-03-02T13:09:23;96816.69;;;13.98;51.52